createdAt,value
2022-09-14T00:02:53.522Z,1.80
2022-09-14T00:05:56.868Z,2.95
2022-09-14T00:09:01.264Z,2.13
2022-09-14T00:12:05.038Z,2.08
2022-09-14T00:15:08.929Z,2.65
2022-09-14T00:18:13.621Z,2.53
2022-09-14T00:21:16.859Z,2.63
2022-09-14T00:24:20.434Z,3.03
2022-09-14T00:27:23.686Z,3.10
2022-09-14T00:30:28.212Z,2.53
2022-09-14T00:33:33.869Z,2.60
2022-09-14T00:36:40.897Z,2.22
2022-09-14T00:39:44.302Z,2.42
2022-09-14T00:42:47.598Z,2.33
2022-09-14T00:45:50.895Z,2.50
2022-09-14T00:48:56.333Z,2.83
2022-09-14T00:52:00.972Z,2.05
2022-09-14T00:55:05.781Z,2.75
2022-09-14T00:58:09.452Z,2.50
2022-09-14T01:01:13.066Z,2.90
2022-09-14T01:04:18.187Z,2.58
2022-09-14T01:07:28.873Z,2.63
2022-09-14T01:10:42.029Z,2.85
2022-09-14T01:13:48.922Z,3.10
2022-09-14T01:16:56.283Z,2.60
2022-09-14T01:20:12.464Z,2.30
2022-09-14T01:23:19.093Z,2.83
2022-09-14T01:26:41.025Z,2.40
2022-09-14T01:29:46.974Z,2.25
2022-09-14T01:32:52.834Z,3.17
2022-09-14T01:35:57.269Z,2.38
2022-09-14T01:39:00.954Z,2.40
2022-09-14T01:42:04.752Z,2.10
2022-09-14T01:45:11.698Z,2.17
2022-09-14T01:48:18.098Z,2.38
2022-09-14T01:51:24.792Z,2.35
2022-09-14T01:54:30.811Z,2.20
2022-09-14T01:57:37.209Z,2.22
2022-09-14T02:00:45.863Z,2.38
2022-09-14T02:03:51.697Z,2.38
2022-09-14T02:06:56.706Z,2.30
2022-09-14T02:10:00.186Z,1.92
2022-09-14T02:13:03.749Z,2.33
2022-09-14T02:16:08.421Z,2.45
2022-09-14T02:19:12.037Z,2.28
2022-09-14T02:22:15.463Z,2.35
2022-09-14T02:25:18.868Z,2.42
2022-09-14T02:28:22.311Z,2.10
2022-09-14T02:31:30.484Z,2.00
2022-09-14T02:34:40.164Z,2.40
2022-09-14T02:37:46.597Z,2.00
2022-09-14T02:40:53.773Z,2.30
2022-09-14T02:44:01.201Z,1.70
2022-09-14T02:47:08.399Z,1.65
2022-09-14T02:50:16.294Z,1.48
2022-09-14T02:53:21.805Z,1.52
2022-09-14T02:56:25.565Z,1.92
2022-09-14T02:59:28.858Z,1.90
2022-09-14T03:02:33.448Z,1.73
2022-09-14T03:05:36.923Z,1.75
2022-09-14T03:08:40.211Z,2.00
2022-09-14T03:11:43.500Z,1.58
2022-09-14T03:14:46.738Z,1.70
2022-09-14T03:17:52.237Z,2.08
2022-09-14T03:20:55.451Z,1.73
2022-09-14T03:23:58.845Z,1.98
2022-09-14T03:27:02.077Z,2.08
2022-09-14T03:30:06.277Z,1.83
2022-09-14T03:33:11.133Z,1.80
2022-09-14T03:36:15.647Z,2.00
2022-09-14T03:39:18.906Z,1.77
2022-09-14T03:42:22.130Z,1.50
2022-09-14T03:45:25.369Z,1.88
2022-09-14T03:48:30.919Z,1.65
2022-09-14T03:51:35.359Z,1.50
2022-09-14T03:54:38.576Z,1.10
2022-09-14T03:57:41.840Z,1.45
2022-09-14T04:00:45.266Z,1.17
2022-09-14T04:03:50.082Z,1.13
2022-09-14T04:06:53.320Z,1.58
2022-09-14T04:09:56.909Z,1.88
2022-09-14T04:13:02.185Z,1.20
2022-09-14T04:16:05.933Z,1.40
2022-09-14T04:19:11.022Z,1.45
2022-09-14T04:22:14.365Z,1.35
2022-09-14T04:25:17.743Z,1.15
2022-09-14T04:28:21.249Z,1.02
2022-09-14T04:31:24.863Z,1.33
2022-09-14T04:34:29.664Z,0.80
2022-09-14T04:37:33.308Z,0.93
2022-09-14T04:40:36.539Z,1.05
2022-09-14T04:43:39.939Z,1.23
2022-09-14T04:46:46.697Z,1.20
2022-09-14T04:49:51.907Z,1.35
2022-09-14T04:52:55.233Z,1.35
2022-09-14T04:56:01.469Z,1.00
2022-09-14T04:59:05.750Z,0.93
2022-09-14T05:02:09.042Z,1.20
2022-09-14T05:05:13.806Z,1.00
2022-09-14T05:08:17.477Z,0.90
2022-09-14T05:11:21.332Z,1.20
2022-09-14T05:14:24.580Z,0.95
2022-09-14T05:17:28.403Z,0.82
2022-09-14T05:20:33.024Z,1.00
2022-09-14T05:23:36.343Z,1.08
2022-09-14T05:26:39.774Z,1.05
2022-09-14T05:29:43.020Z,1.00
2022-09-14T05:32:46.266Z,1.20
2022-09-14T05:35:51.328Z,0.80
2022-09-14T05:38:54.811Z,0.90
2022-09-14T05:41:58.119Z,1.23
2022-09-14T05:45:01.345Z,1.40
2022-09-14T05:48:05.567Z,1.50
2022-09-14T05:51:11.788Z,1.35
2022-09-14T05:54:15.040Z,1.88
2022-09-14T05:57:18.274Z,1.60
2022-09-14T06:00:22.488Z,1.10
2022-09-14T06:03:25.796Z,1.30
2022-09-14T06:06:30.884Z,1.20
2022-09-14T06:09:34.129Z,1.42
2022-09-14T06:12:37.377Z,1.40
2022-09-14T06:15:40.618Z,1.50
2022-09-14T06:18:44.664Z,2.22
2022-09-14T06:21:49.262Z,1.40
2022-09-14T06:24:52.505Z,1.98
2022-09-14T06:27:55.917Z,1.20
2022-09-14T06:30:59.214Z,1.20
2022-09-14T06:34:03.951Z,1.27
2022-09-14T06:37:08.625Z,1.17
2022-09-14T06:40:12.368Z,1.42
2022-09-14T06:43:15.638Z,1.65
2022-09-14T06:46:20.008Z,1.35
2022-09-14T06:49:23.598Z,1.15
2022-09-14T06:52:33.068Z,1.55
2022-09-14T06:55:37.015Z,1.60
2022-09-14T06:58:40.284Z,1.38
2022-09-14T07:01:43.767Z,1.23
2022-09-14T07:04:46.985Z,1.20
2022-09-14T07:07:54.212Z,1.60
2022-09-14T07:10:58.112Z,1.33
2022-09-14T07:14:02.191Z,1.70
2022-09-14T07:17:05.635Z,1.48
2022-09-14T07:20:09.327Z,1.05
2022-09-14T07:23:14.021Z,1.15
2022-09-14T07:26:18.187Z,1.48
2022-09-14T07:29:21.948Z,1.10
2022-09-14T07:32:25.220Z,1.00
2022-09-14T07:35:28.614Z,1.40
2022-09-14T07:38:51.138Z,1.50
2022-09-14T07:41:55.287Z,1.20
2022-09-14T07:44:58.630Z,1.75
2022-09-14T07:48:01.880Z,1.60
2022-09-14T07:51:06.165Z,1.15
2022-09-14T07:54:12.918Z,1.40
2022-09-14T07:57:17.152Z,1.17
2022-09-14T08:00:21.989Z,1.02
2022-09-14T08:03:25.358Z,1.73
2022-09-14T08:06:29.013Z,1.30
2022-09-14T08:09:34.317Z,1.55
2022-09-14T08:12:37.742Z,1.73
2022-09-14T08:15:41.062Z,1.52
2022-09-14T08:18:45.445Z,1.10
2022-09-14T08:21:48.958Z,1.00
2022-09-14T08:24:53.553Z,1.67
2022-09-14T08:27:56.818Z,1.05
2022-09-14T08:31:03.938Z,1.13
2022-09-14T08:34:07.615Z,1.23
2022-09-14T08:37:12.037Z,1.52
2022-09-14T08:40:18.054Z,1.35
2022-09-14T08:43:22.185Z,0.98
2022-09-14T08:46:29.887Z,1.23
2022-09-14T08:49:38.359Z,0.88
2022-09-14T08:52:43.521Z,1.35
2022-09-14T08:55:50.660Z,1.38
2022-09-14T08:59:02.544Z,1.13
2022-09-14T09:02:12.387Z,1.25
2022-09-14T09:05:25.554Z,1.27
2022-09-14T09:08:32.128Z,1.25
2022-09-14T09:11:38.909Z,1.60
2022-09-14T09:14:44.769Z,1.25
2022-09-14T09:17:48.928Z,1.77
2022-09-14T09:20:53.521Z,1.13
2022-09-14T09:23:57.557Z,1.23
2022-09-14T09:27:02.492Z,1.30
2022-09-14T09:30:06.060Z,0.90
2022-09-14T09:33:09.548Z,1.00
2022-09-14T09:36:14.739Z,1.08
2022-09-14T09:39:18.473Z,1.25
2022-09-14T09:42:24.507Z,1.58
2022-09-14T09:45:27.741Z,1.42
2022-09-14T09:48:34.300Z,1.80
2022-09-14T09:51:37.636Z,0.90
2022-09-14T09:54:42.532Z,1.25
2022-09-14T09:57:47.144Z,1.52
2022-09-14T10:00:56.983Z,1.45
2022-09-14T10:04:08.877Z,1.15
2022-09-14T10:07:21.462Z,1.10
2022-09-14T10:10:27.501Z,1.08
2022-09-14T10:13:38.247Z,1.20
2022-09-14T10:16:42.074Z,1.60
2022-09-14T10:19:49.363Z,1.20
2022-09-14T10:22:52.901Z,1.50
2022-09-14T10:26:14.756Z,1.55
2022-09-14T10:29:27.108Z,1.30
2022-09-14T10:32:30.527Z,1.63
2022-09-14T10:35:41.193Z,1.58
2022-09-14T10:38:45.963Z,1.13
2022-09-14T10:41:52.591Z,2.30
2022-09-14T10:45:05.775Z,1.80
2022-09-14T10:48:27.258Z,1.13
2022-09-14T10:51:37.977Z,1.02
2022-09-14T10:54:54.376Z,1.63
2022-09-14T10:58:01.960Z,1.35
2022-09-14T11:01:16.299Z,1.20
2022-09-14T11:04:24.808Z,1.77
2022-09-14T11:07:32.885Z,1.40
2022-09-14T11:10:40.108Z,1.50
2022-09-14T11:13:59.238Z,1.27
2022-09-14T11:17:14.794Z,2.10
2022-09-14T11:20:25.622Z,1.33
2022-09-14T11:23:32.588Z,1.20
2022-09-14T11:26:42.171Z,1.50
2022-09-14T11:29:48.356Z,1.80
2022-09-14T11:32:55.967Z,1.52
2022-09-14T11:36:02.637Z,1.65
2022-09-14T11:39:07.967Z,1.58
2022-09-14T11:42:14.143Z,1.33
2022-09-14T11:45:20.368Z,1.48
2022-09-14T11:48:52.696Z,1.65
2022-09-14T11:51:53.947Z,1.88
2022-09-14T11:54:57.552Z,1.60
2022-09-14T11:58:01.136Z,1.40
2022-09-14T12:01:26.619Z,1.50
2022-09-14T12:04:31.197Z,1.60
2022-09-14T12:07:55.431Z,1.58
2022-09-14T12:11:17.149Z,1.40
2022-09-14T12:14:32.772Z,2.28
2022-09-14T12:17:40.772Z,2.42
2022-09-14T12:20:46.818Z,1.63
2022-09-14T12:23:52.228Z,1.05
2022-09-14T12:26:56.048Z,1.35
2022-09-14T12:29:59.317Z,1.20
2022-09-14T12:33:03.433Z,1.20
2022-09-14T12:36:10.876Z,1.10
2022-09-14T12:39:24.808Z,0.90
2022-09-14T12:42:29.876Z,1.38
2022-09-14T12:45:52.537Z,1.25
2022-09-14T12:48:58.631Z,1.20
2022-09-14T12:52:06.473Z,0.93
2022-09-14T12:55:17.459Z,1.00
2022-09-14T12:58:41.869Z,1.50
2022-09-14T13:01:50.747Z,0.98
2022-09-14T13:04:54.988Z,1.00
2022-09-14T13:08:00.017Z,1.70
2022-09-14T13:11:03.465Z,1.52
2022-09-14T13:14:07.209Z,1.23
2022-09-14T13:17:13.881Z,1.00
2022-09-14T13:20:18.654Z,1.60
2022-09-14T13:23:23.902Z,1.13
2022-09-14T13:26:28.946Z,1.33
2022-09-14T13:29:32.447Z,1.25
2022-09-14T13:32:36.498Z,1.25
2022-09-14T13:35:41.012Z,1.35
2022-09-14T13:38:45.829Z,1.52
2022-09-14T13:41:49.192Z,1.30
2022-09-14T13:44:53.742Z,1.52
2022-09-14T13:47:57.211Z,1.10
2022-09-14T13:51:00.507Z,1.40
2022-09-14T13:54:18.645Z,1.50
2022-09-14T13:57:24.110Z,2.03
2022-09-14T14:00:27.349Z,1.60
2022-09-14T14:03:35.155Z,1.65
2022-09-14T14:06:39.405Z,1.60
2022-09-14T14:09:44.388Z,1.20
2022-09-14T14:12:50.938Z,1.55
2022-09-14T14:15:54.689Z,1.33
2022-09-14T14:18:58.593Z,1.50
2022-09-14T14:22:19.010Z,1.40
2022-09-14T14:25:29.761Z,1.30
2022-09-14T14:28:34.381Z,1.80
2022-09-14T14:31:38.000Z,1.23
2022-09-14T14:34:41.301Z,1.50
2022-09-14T14:37:44.567Z,2.25
2022-09-14T14:40:48.850Z,1.50
2022-09-14T14:43:53.845Z,1.00
2022-09-14T14:46:57.185Z,1.55
2022-09-14T14:50:01.137Z,1.20
2022-09-14T14:53:05.262Z,1.27
2022-09-14T14:56:08.540Z,1.05
2022-09-14T14:59:26.040Z,1.45
2022-09-14T15:02:29.283Z,1.17
2022-09-14T15:05:32.814Z,1.27
2022-09-14T15:08:36.079Z,1.48
2022-09-14T15:11:40.541Z,1.20
2022-09-14T15:14:45.172Z,0.88
2022-09-14T15:17:48.653Z,1.10
2022-09-14T15:20:51.910Z,1.17
2022-09-14T15:23:55.163Z,1.17
2022-09-14T15:26:58.754Z,0.85
2022-09-14T15:30:03.783Z,0.80
2022-09-14T15:33:07.191Z,0.82
2022-09-14T15:36:10.682Z,0.80
2022-09-14T15:39:14.741Z,1.10
2022-09-14T15:42:18.223Z,0.90
2022-09-14T15:45:22.839Z,0.70
2022-09-14T15:48:26.115Z,0.75
2022-09-14T15:51:29.389Z,1.02
2022-09-14T15:54:33.529Z,1.63
2022-09-14T15:57:37.108Z,1.08
2022-09-14T16:00:44.071Z,1.20
2022-09-14T16:03:47.393Z,0.93
2022-09-14T16:06:50.899Z,1.20
2022-09-14T16:09:58.285Z,1.00
2022-09-14T16:13:02.281Z,1.25
2022-09-14T16:16:08.526Z,1.20
2022-09-14T16:19:13.340Z,0.98
2022-09-14T16:22:16.697Z,1.10
2022-09-14T16:25:19.959Z,1.20
2022-09-14T16:28:23.232Z,1.15
2022-09-14T16:31:29.905Z,1.10
2022-09-14T16:34:33.397Z,2.17
2022-09-14T16:37:36.617Z,1.95
2022-09-14T16:40:42.789Z,2.03
2022-09-14T16:43:46.966Z,1.33
2022-09-14T16:46:51.876Z,1.23
2022-09-14T16:49:55.762Z,1.23
2022-09-14T16:52:59.077Z,1.42
2022-09-14T16:56:03.277Z,1.35
2022-09-14T16:59:07.404Z,1.35
2022-09-14T17:02:12.911Z,1.23
2022-09-14T17:05:16.283Z,1.17
2022-09-14T17:08:19.505Z,1.08
2022-09-14T17:11:23.121Z,1.30
2022-09-14T17:14:28.276Z,1.10
2022-09-14T17:17:32.845Z,1.10
2022-09-14T17:20:36.105Z,1.05
2022-09-14T17:23:39.645Z,1.60
2022-09-14T17:26:43.493Z,1.80
2022-09-14T17:29:47.002Z,1.48
2022-09-14T17:32:51.630Z,1.35
2022-09-14T17:35:57.713Z,1.38
2022-09-14T17:39:02.349Z,1.48
2022-09-14T17:42:06.163Z,2.17
2022-09-14T17:45:10.213Z,1.77
2022-09-14T17:48:14.809Z,1.77
2022-09-14T17:51:20.407Z,1.83
2022-09-14T17:54:23.682Z,1.73
2022-09-14T17:57:26.914Z,1.98
2022-09-14T18:00:30.302Z,1.70
2022-09-14T18:03:35.021Z,1.90
2022-09-14T18:06:39.348Z,1.60
2022-09-14T18:09:42.779Z,1.58
2022-09-14T18:12:46.101Z,1.27
2022-09-14T18:15:49.446Z,1.55
2022-09-14T18:18:54.054Z,1.60
2022-09-14T18:21:57.310Z,1.52
2022-09-14T18:25:00.561Z,1.10
2022-09-14T18:28:04.004Z,1.48
2022-09-14T18:31:08.300Z,1.42
2022-09-14T18:34:12.984Z,1.35
2022-09-14T18:37:16.287Z,1.30
2022-09-14T18:40:20.351Z,1.23
2022-09-14T18:43:23.828Z,1.50
2022-09-14T18:46:28.430Z,1.75
2022-09-14T18:49:33.308Z,1.10
2022-09-14T18:52:36.536Z,1.13
2022-09-14T18:55:39.858Z,1.70
2022-09-14T18:58:45.037Z,1.38
2022-09-14T19:01:48.319Z,1.17
2022-09-14T19:04:53.913Z,1.60
2022-09-14T19:07:57.315Z,1.58
2022-09-14T19:11:05.362Z,1.10
2022-09-14T19:14:10.510Z,1.15
2022-09-14T19:17:13.861Z,0.90
2022-09-14T19:20:19.437Z,1.83
2022-09-14T19:23:22.672Z,1.13
2022-09-14T19:26:25.890Z,1.40
2022-09-14T19:29:29.609Z,1.42
2022-09-14T19:32:32.850Z,1.75
2022-09-14T19:35:37.467Z,1.40
2022-09-14T19:38:41.203Z,1.52
2022-09-14T19:41:44.567Z,1.83
2022-09-14T19:44:47.798Z,1.65
2022-09-14T19:47:51.153Z,1.33
2022-09-14T19:50:59.175Z,1.23
2022-09-14T19:54:02.433Z,1.13
2022-09-14T19:57:05.749Z,1.35
2022-09-14T20:00:10.317Z,1.58
2022-09-14T20:03:13.614Z,1.23
2022-09-14T20:06:21.247Z,1.10
2022-09-14T20:09:25.354Z,1.30
2022-09-14T20:12:29.724Z,1.60
2022-09-14T20:15:33.052Z,2.05
2022-09-14T20:18:36.365Z,1.52
2022-09-14T20:21:41.529Z,1.70
2022-09-14T20:24:44.826Z,1.23
2022-09-14T20:27:48.928Z,1.50
2022-09-14T20:30:58.377Z,1.52
2022-09-14T20:34:01.981Z,1.55
2022-09-14T20:37:06.640Z,1.73
2022-09-14T20:40:10.860Z,1.17
2022-09-14T20:43:14.156Z,1.50
2022-09-14T20:46:19.747Z,1.30
2022-09-14T20:49:23.879Z,1.52
2022-09-14T20:52:28.859Z,1.40
2022-09-14T20:55:34.012Z,1.00
2022-09-14T20:58:37.679Z,1.67
2022-09-14T21:01:42.014Z,2.05
2022-09-14T21:04:45.775Z,2.53
2022-09-14T21:07:56.123Z,2.65
2022-09-14T21:10:59.854Z,2.38
2022-09-14T21:14:03.138Z,3.00
2022-09-14T21:17:06.426Z,2.42
2022-09-14T21:20:10.150Z,2.65
2022-09-14T21:23:15.047Z,2.42
2022-09-14T21:26:19.196Z,2.15
2022-09-14T21:29:24.462Z,2.35
2022-09-14T21:32:27.707Z,2.08
2022-09-14T21:35:33.653Z,2.33
2022-09-14T21:38:38.540Z,2.35
2022-09-14T21:41:42.669Z,2.15
2022-09-14T21:44:45.932Z,1.30
2022-09-14T21:47:49.789Z,1.95
2022-09-14T21:51:02.141Z,1.98
2022-09-14T21:54:09.143Z,1.90
2022-09-14T21:57:12.482Z,1.83
2022-09-14T22:00:16.096Z,1.70
2022-09-14T22:03:19.385Z,1.63
2022-09-14T22:06:23.435Z,1.83
2022-09-14T22:09:29.291Z,2.17
2022-09-14T22:12:32.524Z,1.40
2022-09-14T22:15:35.811Z,1.00
2022-09-14T22:18:39.756Z,1.30
2022-09-14T22:21:43.062Z,1.08
2022-09-14T22:24:47.644Z,0.88
2022-09-14T22:27:51.289Z,1.00
2022-09-14T22:30:55.692Z,1.30
2022-09-14T22:33:59.577Z,1.00
2022-09-14T22:37:03.088Z,1.20
2022-09-14T22:40:08.214Z,0.90
2022-09-14T22:43:11.521Z,0.98
2022-09-14T22:46:15.416Z,1.33
2022-09-14T22:49:18.693Z,1.15
2022-09-14T22:52:21.903Z,1.27
2022-09-14T22:55:26.767Z,1.27
2022-09-14T22:58:29.993Z,1.05
2022-09-14T23:01:35.066Z,1.05
2022-09-14T23:04:38.497Z,1.00
2022-09-14T23:07:41.847Z,0.65
2022-09-14T23:10:46.997Z,1.00
2022-09-14T23:13:51.191Z,0.80
2022-09-14T23:16:54.879Z,1.02
2022-09-14T23:19:58.239Z,0.90
2022-09-14T23:23:01.455Z,1.00
2022-09-14T23:26:06.433Z,0.50
2022-09-14T23:29:10.704Z,1.08
2022-09-14T23:32:14.032Z,1.52
2022-09-14T23:35:17.833Z,1.00
2022-09-14T23:38:21.092Z,0.85
2022-09-14T23:41:26.714Z,0.95
2022-09-14T23:44:30.037Z,0.82
2022-09-14T23:47:33.322Z,1.35
2022-09-14T23:50:36.600Z,0.88
2022-09-14T23:53:40.535Z,0.70
2022-09-14T23:56:45.426Z,0.80
2022-09-14T23:59:48.941Z,0.88
